Saint Louis, MO

2:02 AM CDT on April 25, 2015 (GMT -0500)
www.seedgeeks.com | | Change Station
CLOSE
Current Station
Personal Weather Station
Location: Brentwood, MO
Elevation: 486 ft
Nearby Weather Stations

Elev 486 ft 38.61 °N, 90.34 °W | Updated 4 minutes ago

Overcast
Overcast
54.1 °F
Feels Like 54.1 °F
N
0.0
Wind Variable Wind from South

Today
High -- | Low -- °F
--% Chance of Precip.
Yesterday
High -- | Low -- °F
Precip. -- in
6:11 AM 7:47 PM
Waxing Crescent, 43% visible
Pressure 29.70 in
Visibility 10.0 miles
Clouds Overcast 1600 ft
Dew Point 47 °F
Humidity 77%
Rainfall 0.00 in
Snow Depth Not available.
UV 0 out of 12
Pollen 10.20 out of 12
Air Quality Not available.
Flu Activity Local Activity
METAR KSTL 250651Z 14008KT 10SM OVC016 13/08 A2971 RMK AO2 SLP055 T01330078

More Conditions Fewer Conditions

Pressure 29.70 in
Visibility 10.0 miles
Clouds Overcast 1600 ft
Dew Point 47 °F
Humidity 77%
Rainfall 0.00 in
Snow Depth Not available.
UV 0 out of 12
Pollen 10.20 out of 12
Air Quality Not available.
Flu Activity Local Activity
METAR KSTL 250651Z 14008KT 10SM OVC016 13/08 A2971 RMK AO2 SLP055 T01330078

More Conditions Fewer Conditions

10-Day Weather Forecast

Almanac

Astronomy

Apr. 25, 2015 Rise Set
Actual Time
Civil Twilight
Nautical Twilight
Astronomical Twilight
Moon
Length of Visible Light
Length of Day
Tomorrow will be .
, % of the Moon is Illuminated

Today's Extremes

State Highs State Lows

Community

WunderPhotos

Upload Photos

1,816,624 photos uploaded!

WunderBlogs® & News

Nearby

Air Quality

  Air Quality AQ Index Pollutant
Not available.

Snow Depth

Station Depth Elevation

Earthquake Activity

City Distance Mag. Time & Date
Minimum magnitude displayed is 2.5.

Coastal Water Temperatures

Place Temperature

Stations

Nearby Weather Stations

Station Location Temp. Windchill Dew Point Humidity Wind Precip. Elev Updated Type